Ingeniero Williams, Argentina
Current Conditions -  °F | °C
As of 6:00 AM on Saturday 29 Nov 2014 (Local Time) from SAEZ Reporting Station
Clear Clear  
Wind Chill: 70°   Ceiling: Unl
Heat Index: 70°   Visibility: 6mi
Dew Point: 57°   Wind: 14mph
Humidity: 64%   Direction: 50°NE
Pressure: 29.8"   Gusts: NA
Location:  34.96°S, 59.32°W
Report Text: SAEZ 290900Z 05012KT CAVOK 21/14 Q1009
Loading
Personal Weather Stations






























Interactive Weather Map New forecast layout! Learn more

10-Day Weather Forecast

Advertisements
Track Severe Weather on mobile